sensor_id;sensor_type;location;lat;lon;timestamp;P1;durP1;ratioP1;P2;durP2;ratioP2
54121;SDS011;40029;58.708;50.190;2023-11-18T00:02:16;2.58;;;1.10;;
54121;SDS011;40029;58.708;50.190;2023-11-18T00:04:48;3.20;;;0.80;;
54121;SDS011;40029;58.708;50.190;2023-11-18T00:07:19;2.97;;;1.33;;
54121;SDS011;40029;58.708;50.190;2023-11-18T00:09:50;1.48;;;1.05;;
54121;SDS011;40029;58.708;50.190;2023-11-18T00:12:21;3.45;;;1.95;;
54121;SDS011;40029;58.708;50.190;2023-11-18T00:14:54;3.72;;;1.55;;
54121;SDS011;40029;58.708;50.190;2023-11-18T00:17:26;6.65;;;1.23;;
54121;SDS011;40029;58.708;50.190;2023-11-18T00:19:57;1.05;;;0.85;;
54121;SDS011;40029;58.708;50.190;2023-11-18T00:22:28;1.55;;;0.65;;
54121;SDS011;40029;58.708;50.190;2023-11-18T00:25:18;1.92;;;0.70;;
54121;SDS011;40029;58.708;50.190;2023-11-18T00:27:49;4.47;;;1.30;;
54121;SDS011;40029;58.708;50.190;2023-11-18T00:30:20;2.13;;;1.08;;
54121;SDS011;40029;58.708;50.190;2023-11-18T00:32:52;3.40;;;0.85;;
54121;SDS011;40029;58.708;50.190;2023-11-18T00:35:23;1.83;;;1.02;;
54121;SDS011;40029;58.708;50.190;2023-11-18T00:37:54;3.30;;;0.95;;
54121;SDS011;40029;58.708;50.190;2023-11-18T00:40:26;2.10;;;1.45;;
54121;SDS011;40029;58.708;50.190;2023-11-18T00:43:00;1.25;;;1.00;;
54121;SDS011;40029;58.708;50.190;2023-11-18T00:45:31;3.40;;;0.95;;
54121;SDS011;40029;58.708;50.190;2023-11-18T00:48:02;2.47;;;1.38;;
54121;SDS011;40029;58.708;50.190;2023-11-18T00:50:35;3.92;;;1.60;;
54121;SDS011;40029;58.708;50.190;2023-11-18T00:53:06;3.63;;;1.40;;
54121;SDS011;40029;58.708;50.190;2023-11-18T00:55:38;3.67;;;1.20;;
54121;SDS011;40029;58.708;50.190;2023-11-18T00:58:27;2.40;;;1.20;;
54121;SDS011;40029;58.708;50.190;2023-11-18T01:00:59;1.83;;;1.00;;
54121;SDS011;40029;58.708;50.190;2023-11-18T01:03:31;2.97;;;0.93;;
54121;SDS011;40029;58.708;50.190;2023-11-18T01:06:02;1.70;;;1.00;;
54121;SDS011;40029;58.708;50.190;2023-11-18T01:08:35;2.42;;;1.33;;
54121;SDS011;40029;58.708;50.190;2023-11-18T01:11:06;1.95;;;1.00;;
54121;SDS011;40029;58.708;50.190;2023-11-18T01:13:37;1.38;;;0.73;;
54121;SDS011;40029;58.708;50.190;2023-11-18T01:16:09;3.72;;;1.23;;
54121;SDS011;40029;58.708;50.190;2023-11-18T01:18:42;3.72;;;1.25;;
54121;SDS011;40029;58.708;50.190;2023-11-18T01:21:13;2.45;;;0.88;;
54121;SDS011;40029;58.708;50.190;2023-11-18T01:23:48;10.73;;;1.48;;
54121;SDS011;40029;58.708;50.190;2023-11-18T01:26:19;1.70;;;0.90;;
54121;SDS011;40029;58.708;50.190;2023-11-18T01:28:52;1.67;;;0.75;;
54121;SDS011;40029;58.708;50.190;2023-11-18T01:31:23;4.15;;;1.02;;
54121;SDS011;40029;58.708;50.190;2023-11-18T01:33:54;3.42;;;0.70;;
54121;SDS011;40029;58.708;50.190;2023-11-18T01:36:26;2.42;;;0.80;;
54121;SDS011;40029;58.708;50.190;2023-11-18T01:39:17;1.33;;;0.55;;
54121;SDS011;40029;58.708;50.190;2023-11-18T01:41:48;1.30;;;0.70;;
54121;SDS011;40029;58.708;50.190;2023-11-18T01:44:19;0.98;;;0.50;;
54121;SDS011;40029;58.708;50.190;2023-11-18T01:46:50;1.27;;;0.50;;
54121;SDS011;40029;58.708;50.190;2023-11-18T01:49:22;1.80;;;0.80;;
54121;SDS011;40029;58.708;50.190;2023-11-18T01:51:54;2.25;;;1.30;;
54121;SDS011;40029;58.708;50.190;2023-11-18T01:54:27;2.17;;;0.70;;
54121;SDS011;40029;58.708;50.190;2023-11-18T01:56:59;3.28;;;1.10;;
54121;SDS011;40029;58.708;50.190;2023-11-18T01:59:33;1.13;;;0.95;;
54121;SDS011;40029;58.708;50.190;2023-11-18T02:02:04;3.78;;;0.90;;
54121;SDS011;40029;58.708;50.190;2023-11-18T02:04:35;3.70;;;1.25;;
54121;SDS011;40029;58.708;50.190;2023-11-18T02:07:07;1.75;;;0.93;;
54121;SDS011;40029;58.708;50.190;2023-11-18T02:09:39;4.90;;;0.90;;
54121;SDS011;40029;58.708;50.190;2023-11-18T02:12:19;0.50;;;0.40;;
54121;SDS011;40029;58.708;50.190;2023-11-18T02:14:57;1.60;;;0.77;;
54121;SDS011;40029;58.708;50.190;2023-11-18T02:17:30;1.70;;;1.07;;
54121;SDS011;40029;58.708;50.190;2023-11-18T02:20:03;3.78;;;0.98;;
54121;SDS011;40029;58.708;50.190;2023-11-18T02:22:44;2.53;;;0.82;;
54121;SDS011;40029;58.708;50.190;2023-11-18T02:25:19;1.52;;;0.80;;
54121;SDS011;40029;58.708;50.190;2023-11-18T02:28:10;2.03;;;0.70;;
54121;SDS011;40029;58.708;50.190;2023-11-18T02:31:02;6.78;;;1.10;;
54121;SDS011;40029;58.708;50.190;2023-11-18T02:33:41;2.38;;;1.00;;
54121;SDS011;40029;58.708;50.190;2023-11-18T02:36:21;1.45;;;0.82;;
54121;SDS011;40029;58.708;50.190;2023-11-18T02:38:57;0.57;;;0.50;;
54121;SDS011;40029;58.708;50.190;2023-11-18T02:41:30;1.33;;;1.00;;
54121;SDS011;40029;58.708;50.190;2023-11-18T02:44:03;0.80;;;0.60;;
54121;SDS011;40029;58.708;50.190;2023-11-18T02:46:39;1.25;;;0.98;;
54121;SDS011;40029;58.708;50.190;2023-11-18T02:49:32;1.20;;;0.93;;
54121;SDS011;40029;58.708;50.190;2023-11-18T02:52:05;1.50;;;1.40;;
54121;SDS011;40029;58.708;50.190;2023-11-18T02:54:36;4.18;;;1.25;;
54121;SDS011;40029;58.708;50.190;2023-11-18T02:57:07;2.30;;;0.90;;
54121;SDS011;40029;58.708;50.190;2023-11-18T02:59:39;5.25;;;1.35;;
54121;SDS011;40029;58.708;50.190;2023-11-18T03:02:10;3.63;;;1.10;;
54121;SDS011;40029;58.708;50.190;2023-11-18T03:04:41;1.38;;;1.00;;
54121;SDS011;40029;58.708;50.190;2023-11-18T03:07:15;3.20;;;1.38;;
54121;SDS011;40029;58.708;50.190;2023-11-18T03:09:46;0.88;;;0.65;;
54121;SDS011;40029;58.708;50.190;2023-11-18T03:12:17;6.25;;;1.20;;
54121;SDS011;40029;58.708;50.190;2023-11-18T03:14:49;1.60;;;1.00;;
54121;SDS011;40029;58.708;50.190;2023-11-18T03:17:20;1.98;;;1.20;;
54121;SDS011;40029;58.708;50.190;2023-11-18T03:19:51;2.95;;;1.13;;
54121;SDS011;40029;58.708;50.190;2023-11-18T03:22:22;4.45;;;1.92;;
54121;SDS011;40029;58.708;50.190;2023-11-18T03:24:53;4.63;;;2.25;;
54121;SDS011;40029;58.708;50.190;2023-11-18T03:27:24;3.70;;;2.00;;
54121;SDS011;40029;58.708;50.190;2023-11-18T03:29:56;4.07;;;1.95;;
54121;SDS011;40029;58.708;50.190;2023-11-18T03:32:27;5.28;;;1.80;;
54121;SDS011;40029;58.708;50.190;2023-11-18T03:34:58;4.57;;;1.33;;
54121;SDS011;40029;58.708;50.190;2023-11-18T03:37:34;3.33;;;1.85;;
54121;SDS011;40029;58.708;50.190;2023-11-18T03:40:09;2.58;;;1.50;;
54121;SDS011;40029;58.708;50.190;2023-11-18T03:43:00;2.17;;;1.20;;
54121;SDS011;40029;58.708;50.190;2023-11-18T03:45:31;4.65;;;1.38;;
54121;SDS011;40029;58.708;50.190;2023-11-18T03:48:03;1.13;;;0.80;;
54121;SDS011;40029;58.708;50.190;2023-11-18T03:50:34;3.05;;;1.20;;
54121;SDS011;40029;58.708;50.190;2023-11-18T03:53:06;4.95;;;1.63;;
54121;SDS011;40029;58.708;50.190;2023-11-18T03:55:37;4.03;;;1.20;;
54121;SDS011;40029;58.708;50.190;2023-11-18T03:58:08;4.00;;;1.92;;
54121;SDS011;40029;58.708;50.190;2023-11-18T04:00:39;5.18;;;1.27;;
54121;SDS011;40029;58.708;50.190;2023-11-18T04:03:10;2.63;;;1.02;;
54121;SDS011;40029;58.708;50.190;2023-11-18T04:06:00;11.07;;;3.58;;
54121;SDS011;40029;58.708;50.190;2023-11-18T04:08:32;4.05;;;1.67;;
54121;SDS011;40029;58.708;50.190;2023-11-18T04:11:05;6.47;;;1.70;;
54121;SDS011;40029;58.708;50.190;2023-11-18T04:13:54;6.38;;;1.40;;
54121;SDS011;40029;58.708;50.190;2023-11-18T04:16:25;8.43;;;1.85;;
54121;SDS011;40029;58.708;50.190;2023-11-18T04:18:56;2.17;;;1.15;;
54121;SDS011;40029;58.708;50.190;2023-11-18T04:21:46;1.33;;;1.00;;
54121;SDS011;40029;58.708;50.190;2023-11-18T04:24:19;1.77;;;1.00;;
54121;SDS011;40029;58.708;50.190;2023-11-18T04:26:50;1.52;;;0.95;;
54121;SDS011;40029;58.708;50.190;2023-11-18T04:29:21;1.35;;;0.70;;
54121;SDS011;40029;58.708;50.190;2023-11-18T04:31:53;1.90;;;0.68;;
54121;SDS011;40029;58.708;50.190;2023-11-18T04:34:25;2.58;;;0.60;;
54121;SDS011;40029;58.708;50.190;2023-11-18T04:36:56;3.17;;;1.13;;
54121;SDS011;40029;58.708;50.190;2023-11-18T04:39:27;5.07;;;0.73;;
54121;SDS011;40029;58.708;50.190;2023-11-18T04:42:00;2.75;;;0.80;;
54121;SDS011;40029;58.708;50.190;2023-11-18T04:44:32;2.47;;;1.42;;
54121;SDS011;40029;58.708;50.190;2023-11-18T04:47:03;1.20;;;0.68;;
54121;SDS011;40029;58.708;50.190;2023-11-18T04:49:35;11.95;;;2.53;;
54121;SDS011;40029;58.708;50.190;2023-11-18T04:52:06;6.53;;;2.28;;
54121;SDS011;40029;58.708;50.190;2023-11-18T04:54:37;8.27;;;1.42;;
54121;SDS011;40029;58.708;50.190;2023-11-18T04:57:08;5.07;;;2.20;;
54121;SDS011;40029;58.708;50.190;2023-11-18T04:59:39;31.17;;;5.53;;
54121;SDS011;40029;58.708;50.190;2023-11-18T05:02:10;18.75;;;5.55;;
54121;SDS011;40029;58.708;50.190;2023-11-18T05:04:41;5.90;;;1.52;;
54121;SDS011;40029;58.708;50.190;2023-11-18T05:07:12;1.63;;;1.00;;
54121;SDS011;40029;58.708;50.190;2023-11-18T05:09:44;16.40;;;1.48;;
54121;SDS011;40029;58.708;50.190;2023-11-18T05:12:15;9.50;;;1.48;;
54121;SDS011;40029;58.708;50.190;2023-11-18T05:14:46;5.10;;;2.20;;
54121;SDS011;40029;58.708;50.190;2023-11-18T05:17:20;3.40;;;1.63;;
54121;SDS011;40029;58.708;50.190;2023-11-18T05:19:51;3.75;;;2.20;;
54121;SDS011;40029;58.708;50.190;2023-11-18T05:22:23;4.32;;;1.83;;
54121;SDS011;40029;58.708;50.190;2023-11-18T05:24:54;2.72;;;1.27;;
54121;SDS011;40029;58.708;50.190;2023-11-18T05:27:25;1.73;;;1.00;;
54121;SDS011;40029;58.708;50.190;2023-11-18T05:29:57;0.90;;;0.70;;
54121;SDS011;40029;58.708;50.190;2023-11-18T05:32:29;1.58;;;1.00;;
54121;SDS011;40029;58.708;50.190;2023-11-18T05:35:19;5.70;;;1.38;;
54121;SDS011;40029;58.708;50.190;2023-11-18T05:37:54;3.78;;;0.98;;
54121;SDS011;40029;58.708;50.190;2023-11-18T05:40:26;5.05;;;1.08;;
54121;SDS011;40029;58.708;50.190;2023-11-18T05:42:59;1.88;;;1.10;;
54121;SDS011;40029;58.708;50.190;2023-11-18T05:45:32;2.92;;;1.30;;
54121;SDS011;40029;58.708;50.190;2023-11-18T05:48:24;8.02;;;2.55;;
54121;SDS011;40029;58.708;50.190;2023-11-18T05:50:55;8.20;;;2.03;;
54121;SDS011;40029;58.708;50.190;2023-11-18T05:53:26;9.45;;;3.03;;
54121;SDS011;40029;58.708;50.190;2023-11-18T05:55:58;12.00;;;3.55;;
54121;SDS011;40029;58.708;50.190;2023-11-18T05:58:29;3.05;;;1.40;;
54121;SDS011;40029;58.708;50.190;2023-11-18T06:01:00;2.20;;;0.93;;
54121;SDS011;40029;58.708;50.190;2023-11-18T06:03:50;3.55;;;1.08;;
54121;SDS011;40029;58.708;50.190;2023-11-18T06:06:21;6.20;;;1.70;;
54121;SDS011;40029;58.708;50.190;2023-11-18T06:08:52;8.45;;;3.20;;
54121;SDS011;40029;58.708;50.190;2023-11-18T06:11:24;3.75;;;1.27;;
54121;SDS011;40029;58.708;50.190;2023-11-18T06:13:55;3.28;;;2.13;;
54121;SDS011;40029;58.708;50.190;2023-11-18T06:16:26;4.93;;;2.40;;
54121;SDS011;40029;58.708;50.190;2023-11-18T06:18:57;5.05;;;2.55;;
54121;SDS011;40029;58.708;50.190;2023-11-18T06:21:29;3.80;;;1.20;;
54121;SDS011;40029;58.708;50.190;2023-11-18T06:24:03;3.38;;;1.83;;
54121;SDS011;40029;58.708;50.190;2023-11-18T06:26:36;7.07;;;3.60;;
54121;SDS011;40029;58.708;50.190;2023-11-18T06:29:07;7.28;;;2.88;;
54121;SDS011;40029;58.708;50.190;2023-11-18T06:31:39;1.50;;;1.00;;
54121;SDS011;40029;58.708;50.190;2023-11-18T06:34:10;2.03;;;1.00;;
54121;SDS011;40029;58.708;50.190;2023-11-18T06:36:43;2.80;;;1.30;;
54121;SDS011;40029;58.708;50.190;2023-11-18T06:39:14;3.38;;;1.13;;
54121;SDS011;40029;58.708;50.190;2023-11-18T06:41:47;3.17;;;1.63;;
54121;SDS011;40029;58.708;50.190;2023-11-18T06:44:21;1.70;;;0.85;;
54121;SDS011;40029;58.708;50.190;2023-11-18T06:46:54;5.50;;;1.52;;
54121;SDS011;40029;58.708;50.190;2023-11-18T06:49:44;2.05;;;1.25;;
54121;SDS011;40029;58.708;50.190;2023-11-18T06:52:18;4.07;;;1.48;;
54121;SDS011;40029;58.708;50.190;2023-11-18T06:54:50;10.30;;;3.33;;
54121;SDS011;40029;58.708;50.190;2023-11-18T06:57:41;1.45;;;0.75;;
54121;SDS011;40029;58.708;50.190;2023-11-18T07:00:13;3.72;;;2.03;;
54121;SDS011;40029;58.708;50.190;2023-11-18T07:02:45;3.30;;;1.58;;
54121;SDS011;40029;58.708;50.190;2023-11-18T07:05:17;2.47;;;1.40;;
54121;SDS011;40029;58.708;50.190;2023-11-18T07:07:48;2.22;;;1.17;;
54121;SDS011;40029;58.708;50.190;2023-11-18T07:10:38;4.07;;;1.42;;
54121;SDS011;40029;58.708;50.190;2023-11-18T07:13:09;1.40;;;0.95;;
54121;SDS011;40029;58.708;50.190;2023-11-18T07:15:41;2.63;;;0.80;;
54121;SDS011;40029;58.708;50.190;2023-11-18T07:18:12;3.55;;;0.80;;
54121;SDS011;40029;58.708;50.190;2023-11-18T07:20:44;4.97;;;0.85;;
54121;SDS011;40029;58.708;50.190;2023-11-18T07:23:34;6.72;;;1.90;;
54121;SDS011;40029;58.708;50.190;2023-11-18T07:26:05;7.97;;;2.45;;
54121;SDS011;40029;58.708;50.190;2023-11-18T07:28:36;12.27;;;4.40;;
54121;SDS011;40029;58.708;50.190;2023-11-18T07:31:07;6.43;;;2.85;;
54121;SDS011;40029;58.708;50.190;2023-11-18T07:33:39;4.07;;;1.90;;
54121;SDS011;40029;58.708;50.190;2023-11-18T07:36:29;5.78;;;1.70;;
54121;SDS011;40029;58.708;50.190;2023-11-18T07:39:18;4.68;;;1.58;;
54121;SDS011;40029;58.708;50.190;2023-11-18T07:42:10;9.65;;;2.10;;
54121;SDS011;40029;58.708;50.190;2023-11-18T07:44:42;1.17;;;0.75;;
54121;SDS011;40029;58.708;50.190;2023-11-18T07:47:13;6.03;;;1.23;;
54121;SDS011;40029;58.708;50.190;2023-11-18T07:49:46;2.60;;;1.50;;
54121;SDS011;40029;58.708;50.190;2023-11-18T07:52:18;10.27;;;3.15;;
54121;SDS011;40029;58.708;50.190;2023-11-18T07:54:50;7.85;;;2.58;;
54121;SDS011;40029;58.708;50.190;2023-11-18T07:57:21;11.77;;;3.53;;
54121;SDS011;40029;58.708;50.190;2023-11-18T08:00:12;3.78;;;1.77;;
54121;SDS011;40029;58.708;50.190;2023-11-18T08:03:05;17.88;;;3.22;;
54121;SDS011;40029;58.708;50.190;2023-11-18T08:05:42;2.55;;;1.33;;
54121;SDS011;40029;58.708;50.190;2023-11-18T08:08:14;4.78;;;2.28;;
54121;SDS011;40029;58.708;50.190;2023-11-18T08:10:47;2.60;;;1.27;;
54121;SDS011;40029;58.708;50.190;2023-11-18T08:13:19;2.83;;;1.48;;
54121;SDS011;40029;58.708;50.190;2023-11-18T08:15:50;3.63;;;1.60;;
54121;SDS011;40029;58.708;50.190;2023-11-18T08:18:21;2.35;;;1.33;;
54121;SDS011;40029;58.708;50.190;2023-11-18T08:20:54;1.65;;;1.38;;
54121;SDS011;40029;58.708;50.190;2023-11-18T08:23:26;2.90;;;1.10;;
54121;SDS011;40029;58.708;50.190;2023-11-18T08:25:58;1.95;;;1.10;;
54121;SDS011;40029;58.708;50.190;2023-11-18T08:28:29;1.95;;;0.90;;
54121;SDS011;40029;58.708;50.190;2023-11-18T08:31:00;3.05;;;1.30;;
54121;SDS011;40029;58.708;50.190;2023-11-18T08:33:32;6.07;;;0.82;;
54121;SDS011;40029;58.708;50.190;2023-11-18T08:36:04;1.95;;;1.33;;
54121;SDS011;40029;58.708;50.190;2023-11-18T08:38:38;1.92;;;0.80;;
54121;SDS011;40029;58.708;50.190;2023-11-18T08:41:10;1.73;;;0.82;;
54121;SDS011;40029;58.708;50.190;2023-11-18T08:43:42;1.42;;;0.80;;
54121;SDS011;40029;58.708;50.190;2023-11-18T08:46:17;1.85;;;0.65;;
54121;SDS011;40029;58.708;50.190;2023-11-18T08:48:49;2.67;;;0.80;;
54121;SDS011;40029;58.708;50.190;2023-11-18T08:51:21;1.20;;;0.80;;
54121;SDS011;40029;58.708;50.190;2023-11-18T08:53:56;1.35;;;0.60;;
54121;SDS011;40029;58.708;50.190;2023-11-18T08:56:28;1.25;;;0.80;;
54121;SDS011;40029;58.708;50.190;2023-11-18T08:59:05;3.08;;;0.80;;
54121;SDS011;40029;58.708;50.190;2023-11-18T09:01:58;11.80;;;3.45;;
54121;SDS011;40029;58.708;50.190;2023-11-18T09:04:30;7.18;;;1.55;;
54121;SDS011;40029;58.708;50.190;2023-11-18T09:07:04;14.98;;;2.95;;
54121;SDS011;40029;58.708;50.190;2023-11-18T09:09:35;12.18;;;3.17;;
54121;SDS011;40029;58.708;50.190;2023-11-18T09:12:06;13.50;;;3.85;;
54121;SDS011;40029;58.708;50.190;2023-11-18T09:14:39;6.25;;;2.47;;
54121;SDS011;40029;58.708;50.190;2023-11-18T09:17:10;3.63;;;1.60;;
54121;SDS011;40029;58.708;50.190;2023-11-18T09:19:41;12.27;;;4.18;;
54121;SDS011;40029;58.708;50.190;2023-11-18T09:22:12;6.60;;;2.92;;
54121;SDS011;40029;58.708;50.190;2023-11-18T09:24:45;15.52;;;5.45;;
54121;SDS011;40029;58.708;50.190;2023-11-18T09:27:16;21.80;;;7.53;;
54121;SDS011;40029;58.708;50.190;2023-11-18T09:29:47;39.92;;;10.95;;
54121;SDS011;40029;58.708;50.190;2023-11-18T09:32:23;8.95;;;4.72;;
54121;SDS011;40029;58.708;50.190;2023-11-18T09:34:56;11.23;;;3.47;;
54121;SDS011;40029;58.708;50.190;2023-11-18T09:37:29;33.38;;;9.57;;
54121;SDS011;40029;58.708;50.190;2023-11-18T09:40:00;21.45;;;6.53;;
54121;SDS011;40029;58.708;50.190;2023-11-18T09:42:42;11.43;;;4.57;;
54121;SDS011;40029;58.708;50.190;2023-11-18T09:45:14;5.72;;;3.47;;
54121;SDS011;40029;58.708;50.190;2023-11-18T09:47:50;4.97;;;2.05;;
54121;SDS011;40029;58.708;50.190;2023-11-18T09:50:25;21.40;;;7.55;;
54121;SDS011;40029;58.708;50.190;2023-11-18T09:52:59;13.75;;;6.78;;
54121;SDS011;40029;58.708;50.190;2023-11-18T09:55:43;20.48;;;8.45;;
54121;SDS011;40029;58.708;50.190;2023-11-18T09:58:34;34.05;;;9.27;;
54121;SDS011;40029;58.708;50.190;2023-11-18T10:01:11;24.27;;;8.35;;
54121;SDS011;40029;58.708;50.190;2023-11-18T10:03:44;10.35;;;3.70;;
54121;SDS011;40029;58.708;50.190;2023-11-18T10:06:16;37.13;;;13.70;;
54121;SDS011;40029;58.708;50.190;2023-11-18T10:08:49;6.85;;;2.72;;
54121;SDS011;40029;58.708;50.190;2023-11-18T10:11:51;27.83;;;9.95;;
54121;SDS011;40029;58.708;50.190;2023-11-18T10:14:26;18.63;;;8.30;;
54121;SDS011;40029;58.708;50.190;2023-11-18T10:17:15;22.50;;;6.95;;
54121;SDS011;40029;58.708;50.190;2023-11-18T10:19:55;46.45;;;15.25;;
54121;SDS011;40029;58.708;50.190;2023-11-18T10:22:28;22.52;;;7.90;;
54121;SDS011;40029;58.708;50.190;2023-11-18T10:24:59;28.80;;;8.15;;
54121;SDS011;40029;58.708;50.190;2023-11-18T10:27:31;14.93;;;5.57;;
54121;SDS011;40029;58.708;50.190;2023-11-18T10:30:05;39.05;;;11.38;;
54121;SDS011;40029;58.708;50.190;2023-11-18T10:33:01;13.10;;;4.47;;
54121;SDS011;40029;58.708;50.190;2023-11-18T10:35:38;29.77;;;9.50;;
54121;SDS011;40029;58.708;50.190;2023-11-18T10:38:18;19.30;;;6.35;;
54121;SDS011;40029;58.708;50.190;2023-11-18T10:40:50;12.95;;;5.60;;
54121;SDS011;40029;58.708;50.190;2023-11-18T10:43:23;17.17;;;7.05;;
54121;SDS011;40029;58.708;50.190;2023-11-18T10:46:04;12.30;;;5.35;;
54121;SDS011;40029;58.708;50.190;2023-11-18T10:48:46;5.45;;;1.98;;
54121;SDS011;40029;58.708;50.190;2023-11-18T10:51:19;3.75;;;1.60;;
54121;SDS011;40029;58.708;50.190;2023-11-18T10:53:52;8.75;;;3.63;;
54121;SDS011;40029;58.708;50.190;2023-11-18T10:56:24;1.95;;;1.40;;
54121;SDS011;40029;58.708;50.190;2023-11-18T10:59:06;13.90;;;3.03;;
54121;SDS011;40029;58.708;50.190;2023-11-18T11:01:38;3.72;;;1.83;;
54121;SDS011;40029;58.708;50.190;2023-11-18T11:04:42;2.35;;;1.50;;
54121;SDS011;40029;58.708;50.190;2023-11-18T11:07:14;10.23;;;4.35;;
54121;SDS011;40029;58.708;50.190;2023-11-18T11:09:49;3.63;;;1.83;;
54121;SDS011;40029;58.708;50.190;2023-11-18T11:12:26;4.88;;;2.30;;
54121;SDS011;40029;58.708;50.190;2023-11-18T11:15:12;15.45;;;4.35;;
54121;SDS011;40029;58.708;50.190;2023-11-18T11:18:11;11.13;;;4.28;;
54121;SDS011;40029;58.708;50.190;2023-11-18T11:21:06;5.10;;;2.92;;
54121;SDS011;40029;58.708;50.190;2023-11-18T11:23:50;7.50;;;3.67;;
54121;SDS011;40029;58.708;50.190;2023-11-18T11:26:28;27.52;;;7.63;;
54121;SDS011;40029;58.708;50.190;2023-11-18T11:35:18;22.80;;;6.38;;
54121;SDS011;40029;58.708;50.190;2023-11-18T11:37:56;44.95;;;11.32;;
54121;SDS011;40029;58.708;50.190;2023-11-18T11:40:33;55.30;;;14.18;;
54121;SDS011;40029;58.708;50.190;2023-11-18T11:43:09;21.73;;;6.72;;
54121;SDS011;40029;58.708;50.190;2023-11-18T11:45:51;15.60;;;5.32;;
54121;SDS011;40029;58.708;50.190;2023-11-18T11:48:25;32.87;;;10.20;;
54121;SDS011;40029;58.708;50.190;2023-11-18T11:54:09;8.85;;;4.40;;
54121;SDS011;40029;58.708;50.190;2023-11-18T11:56:48;8.15;;;2.78;;
54121;SDS011;40029;58.708;50.190;2023-11-18T11:59:53;10.95;;;4.43;;
54121;SDS011;40029;58.708;50.190;2023-11-18T12:02:50;7.25;;;2.40;;
54121;SDS011;40029;58.708;50.190;2023-11-18T12:05:28;27.42;;;7.35;;
54121;SDS011;40029;58.708;50.190;2023-11-18T12:08:07;15.65;;;5.47;;
54121;SDS011;40029;58.708;50.190;2023-11-18T12:10:50;52.28;;;12.43;;
54121;SDS011;40029;58.708;50.190;2023-11-18T12:13:26;61.28;;;16.13;;
54121;SDS011;40029;58.708;50.190;2023-11-18T12:15:58;57.70;;;13.65;;
54121;SDS011;40029;58.708;50.190;2023-11-18T12:18:34;26.35;;;8.30;;
54121;SDS011;40029;58.708;50.190;2023-11-18T12:21:07;8.07;;;3.15;;
54121;SDS011;40029;58.708;50.190;2023-11-18T12:29:43;13.90;;;4.32;;
54121;SDS011;40029;58.708;50.190;2023-11-18T12:35:46;18.05;;;7.60;;
54121;SDS011;40029;58.708;50.190;2023-11-18T12:41:37;27.70;;;10.63;;
54121;SDS011;40029;58.708;50.190;2023-11-18T12:44:28;30.60;;;8.45;;
54121;SDS011;40029;58.708;50.190;2023-11-18T12:47:09;47.03;;;15.55;;
54121;SDS011;40029;58.708;50.190;2023-11-18T12:49:51;26.10;;;10.90;;
54121;SDS011;40029;58.708;50.190;2023-11-18T12:52:25;33.58;;;11.15;;
54121;SDS011;40029;58.708;50.190;2023-11-18T12:54:58;45.50;;;14.70;;
54121;SDS011;40029;58.708;50.190;2023-11-18T12:57:31;40.17;;;15.73;;
54121;SDS011;40029;58.708;50.190;2023-11-18T13:00:07;19.60;;;7.15;;
54121;SDS011;40029;58.708;50.190;2023-11-18T13:02:41;31.60;;;11.98;;
54121;SDS011;40029;58.708;50.190;2023-11-18T13:05:13;42.25;;;14.60;;
54121;SDS011;40029;58.708;50.190;2023-11-18T13:07:44;30.08;;;12.23;;
54121;SDS011;40029;58.708;50.190;2023-11-18T13:10:18;22.77;;;9.37;;
54121;SDS011;40029;58.708;50.190;2023-11-18T13:12:49;46.20;;;15.57;;
54121;SDS011;40029;58.708;50.190;2023-11-18T13:15:20;37.97;;;12.90;;
54121;SDS011;40029;58.708;50.190;2023-11-18T13:18:01;19.23;;;6.05;;
54121;SDS011;40029;58.708;50.190;2023-11-18T13:20:37;11.68;;;4.18;;
54121;SDS011;40029;58.708;50.190;2023-11-18T13:23:09;25.55;;;8.65;;
54121;SDS011;40029;58.708;50.190;2023-11-18T13:25:40;15.48;;;5.35;;
54121;SDS011;40029;58.708;50.190;2023-11-18T13:28:31;43.92;;;12.98;;
54121;SDS011;40029;58.708;50.190;2023-11-18T13:31:02;8.55;;;4.25;;
54121;SDS011;40029;58.708;50.190;2023-11-18T13:33:56;17.70;;;5.43;;
54121;SDS011;40029;58.708;50.190;2023-11-18T13:36:28;24.05;;;7.35;;
54121;SDS011;40029;58.708;50.190;2023-11-18T13:38:59;25.70;;;8.98;;
54121;SDS011;40029;58.708;50.190;2023-11-18T13:41:49;25.52;;;9.73;;
54121;SDS011;40029;58.708;50.190;2023-11-18T13:44:36;22.67;;;10.10;;
54121;SDS011;40029;58.708;50.190;2023-11-18T13:47:13;13.23;;;4.75;;
54121;SDS011;40029;58.708;50.190;2023-11-18T13:49:50;22.52;;;7.70;;
54121;SDS011;40029;58.708;50.190;2023-11-18T13:52:42;15.05;;;6.63;;
54121;SDS011;40029;58.708;50.190;2023-11-18T13:55:15;35.83;;;12.65;;
54121;SDS011;40029;58.708;50.190;2023-11-18T13:58:03;19.17;;;8.48;;
54121;SDS011;40029;58.708;50.190;2023-11-18T14:00:36;17.05;;;5.55;;
54121;SDS011;40029;58.708;50.190;2023-11-18T14:03:25;9.90;;;5.07;;
54121;SDS011;40029;58.708;50.190;2023-11-18T14:05:57;22.35;;;6.88;;
54121;SDS011;40029;58.708;50.190;2023-11-18T14:08:31;20.23;;;5.38;;
54121;SDS011;40029;58.708;50.190;2023-11-18T14:11:20;23.10;;;8.18;;
54121;SDS011;40029;58.708;50.190;2023-11-18T14:14:10;21.75;;;6.80;;
54121;SDS011;40029;58.708;50.190;2023-11-18T14:16:41;14.80;;;5.15;;
54121;SDS011;40029;58.708;50.190;2023-11-18T14:19:14;16.85;;;6.53;;
54121;SDS011;40029;58.708;50.190;2023-11-18T14:21:45;19.17;;;5.65;;
54121;SDS011;40029;58.708;50.190;2023-11-18T14:24:17;21.58;;;6.90;;
54121;SDS011;40029;58.708;50.190;2023-11-18T14:27:07;30.63;;;10.55;;
54121;SDS011;40029;58.708;50.190;2023-11-18T14:29:40;32.25;;;9.15;;
54121;SDS011;40029;58.708;50.190;2023-11-18T14:32:30;31.52;;;11.55;;
54121;SDS011;40029;58.708;50.190;2023-11-18T14:35:01;17.55;;;6.78;;
54121;SDS011;40029;58.708;50.190;2023-11-18T14:37:39;26.88;;;7.65;;
54121;SDS011;40029;58.708;50.190;2023-11-18T14:40:12;30.27;;;10.27;;
54121;SDS011;40029;58.708;50.190;2023-11-18T14:42:47;28.98;;;10.25;;
54121;SDS011;40029;58.708;50.190;2023-11-18T14:45:18;13.82;;;5.30;;
54121;SDS011;40029;58.708;50.190;2023-11-18T14:47:49;11.93;;;4.97;;
54121;SDS011;40029;58.708;50.190;2023-11-18T14:50:21;12.85;;;5.63;;
54121;SDS011;40029;58.708;50.190;2023-11-18T14:53:12;8.55;;;3.95;;
54121;SDS011;40029;58.708;50.190;2023-11-18T14:55:44;20.55;;;6.05;;
54121;SDS011;40029;58.708;50.190;2023-11-18T14:58:15;24.17;;;7.40;;
54121;SDS011;40029;58.708;50.190;2023-11-18T15:00:46;18.90;;;5.97;;
54121;SDS011;40029;58.708;50.190;2023-11-18T15:03:18;14.15;;;4.50;;
54121;SDS011;40029;58.708;50.190;2023-11-18T15:05:50;19.33;;;6.90;;
54121;SDS011;40029;58.708;50.190;2023-11-18T15:08:21;14.35;;;5.72;;
54121;SDS011;40029;58.708;50.190;2023-11-18T15:10:52;7.50;;;3.67;;
54121;SDS011;40029;58.708;50.190;2023-11-18T15:13:23;7.78;;;3.08;;
54121;SDS011;40029;58.708;50.190;2023-11-18T15:15:55;4.97;;;2.72;;
54121;SDS011;40029;58.708;50.190;2023-11-18T15:18:44;11.73;;;3.33;;
54121;SDS011;40029;58.708;50.190;2023-11-18T15:21:21;8.90;;;3.85;;
54121;SDS011;40029;58.708;50.190;2023-11-18T15:23:52;11.02;;;4.13;;
54121;SDS011;40029;58.708;50.190;2023-11-18T15:26:23;8.15;;;3.90;;
54121;SDS011;40029;58.708;50.190;2023-11-18T15:28:56;13.05;;;5.57;;
54121;SDS011;40029;58.708;50.190;2023-11-18T15:31:29;9.07;;;4.13;;
54121;SDS011;40029;58.708;50.190;2023-11-18T15:34:02;14.65;;;5.40;;
54121;SDS011;40029;58.708;50.190;2023-11-18T15:36:33;19.58;;;6.30;;
54121;SDS011;40029;58.708;50.190;2023-11-18T15:39:04;19.17;;;5.40;;